sensor_id;sensor_type;location;lat;lon;timestamp;temperature;humidity
13591;DHT22;6866;50.778;7.206;2022-12-16T00:00:20;-6.10;95.10
13591;DHT22;6866;50.778;7.206;2022-12-16T00:02:45;-6.10;94.70
13591;DHT22;6866;50.778;7.206;2022-12-16T00:05:11;-6.30;93.50
13591;DHT22;6866;50.778;7.206;2022-12-16T00:07:36;-6.50;95.40
13591;DHT22;6866;50.778;7.206;2022-12-16T00:10:02;-6.30;94.80
13591;DHT22;6866;50.778;7.206;2022-12-16T00:12:28;-6.20;94.80
13591;DHT22;6866;50.778;7.206;2022-12-16T00:14:53;-6.30;94.30
13591;DHT22;6866;50.778;7.206;2022-12-16T00:17:19;-6.20;94.60
13591;DHT22;6866;50.778;7.206;2022-12-16T00:19:45;-6.20;95.20
13591;DHT22;6866;50.778;7.206;2022-12-16T00:22:11;-6.30;94.80
13591;DHT22;6866;50.778;7.206;2022-12-16T00:24:36;-6.20;95.40
13591;DHT22;6866;50.778;7.206;2022-12-16T00:27:02;-6.00;95.10
13591;DHT22;6866;50.778;7.206;2022-12-16T00:29:28;-6.20;94.70
13591;DHT22;6866;50.778;7.206;2022-12-16T00:31:53;-6.10;95.10
13591;DHT22;6866;50.778;7.206;2022-12-16T00:34:19;-6.00;94.40
13591;DHT22;6866;50.778;7.206;2022-12-16T00:36:44;-5.90;94.50
13591;DHT22;6866;50.778;7.206;2022-12-16T00:39:10;-5.90;94.50
13591;DHT22;6866;50.778;7.206;2022-12-16T00:41:36;-5.80;94.90
13591;DHT22;6866;50.778;7.206;2022-12-16T00:44:02;-5.80;94.50
13591;DHT22;6866;50.778;7.206;2022-12-16T00:46:28;-5.90;94.80
13591;DHT22;6866;50.778;7.206;2022-12-16T00:48:54;-6.00;95.10
13591;DHT22;6866;50.778;7.206;2022-12-16T00:51:19;-5.90;94.90
13591;DHT22;6866;50.778;7.206;2022-12-16T00:53:45;-5.90;95.10
13591;DHT22;6866;50.778;7.206;2022-12-16T00:56:12;-5.90;94.80
13591;DHT22;6866;50.778;7.206;2022-12-16T00:58:43;-5.90;94.70
13591;DHT22;6866;50.778;7.206;2022-12-16T01:01:09;-6.00;94.60
13591;DHT22;6866;50.778;7.206;2022-12-16T01:03:35;-6.10;95.40
13591;DHT22;6866;50.778;7.206;2022-12-16T01:06:06;-6.10;94.90
13591;DHT22;6866;50.778;7.206;2022-12-16T01:08:32;-6.00;94.50
13591;DHT22;6866;50.778;7.206;2022-12-16T01:10:57;-6.10;94.70
13591;DHT22;6866;50.778;7.206;2022-12-16T01:13:24;-6.20;93.80
13591;DHT22;6866;50.778;7.206;2022-12-16T01:15:50;-6.20;94.10
13591;DHT22;6866;50.778;7.206;2022-12-16T01:18:16;-6.30;94.70
13591;DHT22;6866;50.778;7.206;2022-12-16T01:20:42;-6.30;93.00
13591;DHT22;6866;50.778;7.206;2022-12-16T01:23:08;-6.60;93.00
13591;DHT22;6866;50.778;7.206;2022-12-16T01:25:34;-6.40;94.00
13591;DHT22;6866;50.778;7.206;2022-12-16T01:27:59;-6.60;92.50
13591;DHT22;6866;50.778;7.206;2022-12-16T01:30:25;-6.60;92.90
13591;DHT22;6866;50.778;7.206;2022-12-16T01:32:50;-6.50;92.40
13591;DHT22;6866;50.778;7.206;2022-12-16T01:35:16;-6.80;93.70
13591;DHT22;6866;50.778;7.206;2022-12-16T01:37:42;-6.80;93.90
13591;DHT22;6866;50.778;7.206;2022-12-16T01:40:17;-6.90;93.70
13591;DHT22;6866;50.778;7.206;2022-12-16T01:42:44;-6.90;93.90
13591;DHT22;6866;50.778;7.206;2022-12-16T01:45:29;-7.10;95.20
13591;DHT22;6866;50.778;7.206;2022-12-16T01:47:58;-6.80;94.20
13591;DHT22;6866;50.778;7.206;2022-12-16T01:50:27;-7.30;95.40
13591;DHT22;6866;50.778;7.206;2022-12-16T01:52:55;-6.90;95.50
13591;DHT22;6866;50.778;7.206;2022-12-16T01:55:24;-6.70;94.50
13591;DHT22;6866;50.778;7.206;2022-12-16T01:58:11;-6.80;93.50
13591;DHT22;6866;50.778;7.206;2022-12-16T02:03:13;-6.90;94.30
13591;DHT22;6866;50.778;7.206;2022-12-16T02:05:40;-6.80;94.70
13591;DHT22;6866;50.778;7.206;2022-12-16T02:08:12;-6.70;94.20
13591;DHT22;6866;50.778;7.206;2022-12-16T02:13:34;-6.80;94.70
13591;DHT22;6866;50.778;7.206;2022-12-16T02:21:28;-6.60;94.00
13591;DHT22;6866;50.778;7.206;2022-12-16T02:24:37;-6.70;93.50
13591;DHT22;6866;50.778;7.206;2022-12-16T02:33:26;-6.50;93.30
13591;DHT22;6866;50.778;7.206;2022-12-16T02:36:10;-6.70;92.90
13591;DHT22;6866;50.778;7.206;2022-12-16T02:38:59;-6.80;94.00
13591;DHT22;6866;50.778;7.206;2022-12-16T02:44:14;-6.70;93.90
13591;DHT22;6866;50.778;7.206;2022-12-16T02:46:46;-6.70;93.40
13591;DHT22;6866;50.778;7.206;2022-12-16T02:51:41;-6.90;93.70
13591;DHT22;6866;50.778;7.206;2022-12-16T02:54:08;-7.00;93.90
13591;DHT22;6866;50.778;7.206;2022-12-16T02:56:44;-7.10;94.20
13591;DHT22;6866;50.778;7.206;2022-12-16T03:02:15;-6.90;94.30
13591;DHT22;6866;50.778;7.206;2022-12-16T03:05:05;-7.10;94.10
13591;DHT22;6866;50.778;7.206;2022-12-16T03:07:34;-7.10;95.60
13591;DHT22;6866;50.778;7.206;2022-12-16T03:10:04;-7.00;95.60
13591;DHT22;6866;50.778;7.206;2022-12-16T03:12:31;-6.90;94.60
13591;DHT22;6866;50.778;7.206;2022-12-16T03:14:58;-6.80;94.50
13591;DHT22;6866;50.778;7.206;2022-12-16T03:17:24;-6.60;94.00
13591;DHT22;6866;50.778;7.206;2022-12-16T03:20:00;-6.50;93.20
13591;DHT22;6866;50.778;7.206;2022-12-16T03:22:28;-6.50;93.10
13591;DHT22;6866;50.778;7.206;2022-12-16T03:24:55;-6.50;93.40
13591;DHT22;6866;50.778;7.206;2022-12-16T03:27:39;-6.50;93.30
13591;DHT22;6866;50.778;7.206;2022-12-16T03:30:13;-6.50;93.20
13591;DHT22;6866;50.778;7.206;2022-12-16T03:33:06;-6.80;93.60
13591;DHT22;6866;50.778;7.206;2022-12-16T03:38:00;-6.80;93.80
13591;DHT22;6866;50.778;7.206;2022-12-16T03:40:28;-6.70;93.60
13591;DHT22;6866;50.778;7.206;2022-12-16T03:42:54;-6.70;93.00
13591;DHT22;6866;50.778;7.206;2022-12-16T03:45:28;-6.80;93.10
13591;DHT22;6866;50.778;7.206;2022-12-16T03:47:57;-6.80;93.80
13591;DHT22;6866;50.778;7.206;2022-12-16T03:50:34;-6.90;93.60
13591;DHT22;6866;50.778;7.206;2022-12-16T03:53:00;-7.00;93.00
13591;DHT22;6866;50.778;7.206;2022-12-16T03:55:26;-7.00;94.40
13591;DHT22;6866;50.778;7.206;2022-12-16T03:57:52;-6.90;93.10
13591;DHT22;6866;50.778;7.206;2022-12-16T04:00:18;-6.80;92.70
13591;DHT22;6866;50.778;7.206;2022-12-16T04:02:44;-7.30;93.40
13591;DHT22;6866;50.778;7.206;2022-12-16T04:05:10;-7.60;94.50
13591;DHT22;6866;50.778;7.206;2022-12-16T04:07:35;-7.80;95.50
13591;DHT22;6866;50.778;7.206;2022-12-16T04:10:01;-7.60;95.00
13591;DHT22;6866;50.778;7.206;2022-12-16T04:12:27;-7.40;95.00
13591;DHT22;6866;50.778;7.206;2022-12-16T04:15:11;-7.30;94.20
13591;DHT22;6866;50.778;7.206;2022-12-16T04:17:55;-7.10;93.20
13591;DHT22;6866;50.778;7.206;2022-12-16T04:20:43;-7.30;93.10
13591;DHT22;6866;50.778;7.206;2022-12-16T04:23:48;-8.00;95.50
13591;DHT22;6866;50.778;7.206;2022-12-16T04:26:33;-7.50;95.70
13591;DHT22;6866;50.778;7.206;2022-12-16T04:29:21;-7.20;94.30
13591;DHT22;6866;50.778;7.206;2022-12-16T04:31:48;-7.10;93.60
13591;DHT22;6866;50.778;7.206;2022-12-16T04:34:14;-7.10;93.00
13591;DHT22;6866;50.778;7.206;2022-12-16T04:36:57;-7.20;93.20
13591;DHT22;6866;50.778;7.206;2022-12-16T04:39:42;-7.20;93.10
13591;DHT22;6866;50.778;7.206;2022-12-16T04:42:26;-7.40;93.40
13591;DHT22;6866;50.778;7.206;2022-12-16T04:45:10;-7.40;94.10
13591;DHT22;6866;50.778;7.206;2022-12-16T04:47:54;-7.20;92.90
13591;DHT22;6866;50.778;7.206;2022-12-16T04:50:39;-7.20;94.20
13591;DHT22;6866;50.778;7.206;2022-12-16T04:53:24;-7.00;93.20
13591;DHT22;6866;50.778;7.206;2022-12-16T04:56:08;-7.10;93.00
13591;DHT22;6866;50.778;7.206;2022-12-16T04:58:52;-7.00;92.60
13591;DHT22;6866;50.778;7.206;2022-12-16T05:01:36;-7.50;93.80
13591;DHT22;6866;50.778;7.206;2022-12-16T05:04:21;-7.60;95.20
13591;DHT22;6866;50.778;7.206;2022-12-16T05:07:05;-7.30;94.40
13591;DHT22;6866;50.778;7.206;2022-12-16T05:09:49;-7.20;93.40
13591;DHT22;6866;50.778;7.206;2022-12-16T05:12:34;-7.00;92.80
13591;DHT22;6866;50.778;7.206;2022-12-16T05:15:18;-7.00;92.70
13591;DHT22;6866;50.778;7.206;2022-12-16T05:18:13;-6.90;93.00
13591;DHT22;6866;50.778;7.206;2022-12-16T05:20:57;-7.00;92.10
13591;DHT22;6866;50.778;7.206;2022-12-16T05:23:41;-7.40;93.40
13591;DHT22;6866;50.778;7.206;2022-12-16T05:26:26;-7.50;94.60
13591;DHT22;6866;50.778;7.206;2022-12-16T05:29:10;-7.70;94.60
13591;DHT22;6866;50.778;7.206;2022-12-16T05:31:54;-7.50;95.20
13591;DHT22;6866;50.778;7.206;2022-12-16T05:34:38;-7.10;94.00
13591;DHT22;6866;50.778;7.206;2022-12-16T05:37:22;-7.20;93.50
13591;DHT22;6866;50.778;7.206;2022-12-16T05:40:08;-7.10;94.20
13591;DHT22;6866;50.778;7.206;2022-12-16T05:42:53;-7.20;93.10
13591;DHT22;6866;50.778;7.206;2022-12-16T05:45:38;-7.30;93.40
13591;DHT22;6866;50.778;7.206;2022-12-16T05:48:23;-7.40;93.50
13591;DHT22;6866;50.778;7.206;2022-12-16T05:51:07;-7.30;93.20
13591;DHT22;6866;50.778;7.206;2022-12-16T05:53:51;-7.70;94.70
13591;DHT22;6866;50.778;7.206;2022-12-16T05:56:35;-7.50;94.90
13591;DHT22;6866;50.778;7.206;2022-12-16T05:59:19;-7.30;94.30
13591;DHT22;6866;50.778;7.206;2022-12-16T06:02:03;-7.10;92.60
13591;DHT22;6866;50.778;7.206;2022-12-16T06:04:47;-7.20;93.20
13591;DHT22;6866;50.778;7.206;2022-12-16T06:07:31;-7.50;93.30
13591;DHT22;6866;50.778;7.206;2022-12-16T06:10:15;-7.50;94.30
13591;DHT22;6866;50.778;7.206;2022-12-16T06:12:59;-7.20;93.50
13591;DHT22;6866;50.778;7.206;2022-12-16T06:15:44;-7.30;93.60
13591;DHT22;6866;50.778;7.206;2022-12-16T06:18:39;-7.40;93.90
13591;DHT22;6866;50.778;7.206;2022-12-16T06:21:24;-7.90;96.30
13591;DHT22;6866;50.778;7.206;2022-12-16T06:24:08;-8.10;99.90
13591;DHT22;6866;50.778;7.206;2022-12-16T06:26:52;-8.20;99.60
13591;DHT22;6866;50.778;7.206;2022-12-16T06:29:36;-8.10;99.90
13591;DHT22;6866;50.778;7.206;2022-12-16T06:32:20;-8.10;99.90
13591;DHT22;6866;50.778;7.206;2022-12-16T06:35:05;-8.20;99.90
13591;DHT22;6866;50.778;7.206;2022-12-16T06:37:49;-7.80;99.90
13591;DHT22;6866;50.778;7.206;2022-12-16T06:40:33;-7.40;98.60
13591;DHT22;6866;50.778;7.206;2022-12-16T06:43:17;-7.50;98.20
13591;DHT22;6866;50.778;7.206;2022-12-16T06:46:01;-7.40;98.30
13591;DHT22;6866;50.778;7.206;2022-12-16T06:48:45;-7.20;97.20
13591;DHT22;6866;50.778;7.206;2022-12-16T06:51:29;-7.10;96.70
13591;DHT22;6866;50.778;7.206;2022-12-16T06:54:13;-7.40;96.50
13591;DHT22;6866;50.778;7.206;2022-12-16T06:56:57;-7.60;97.30
13591;DHT22;6866;50.778;7.206;2022-12-16T06:59:46;-7.60;97.80
13591;DHT22;6866;50.778;7.206;2022-12-16T07:02:30;-7.40;97.40
13591;DHT22;6866;50.778;7.206;2022-12-16T07:05:14;-7.30;96.60
13591;DHT22;6866;50.778;7.206;2022-12-16T07:07:58;-7.70;98.10
13591;DHT22;6866;50.778;7.206;2022-12-16T07:10:42;-7.60;98.90
13591;DHT22;6866;50.778;7.206;2022-12-16T07:13:26;-7.50;98.00
13591;DHT22;6866;50.778;7.206;2022-12-16T07:16:12;-7.30;97.70
13591;DHT22;6866;50.778;7.206;2022-12-16T07:18:56;-7.20;97.30
13591;DHT22;6866;50.778;7.206;2022-12-16T07:21:40;-7.10;96.40
13591;DHT22;6866;50.778;7.206;2022-12-16T07:24:24;-7.40;97.20
13591;DHT22;6866;50.778;7.206;2022-12-16T07:27:08;-7.60;98.70
13591;DHT22;6866;50.778;7.206;2022-12-16T07:29:52;-7.70;98.30
13591;DHT22;6866;50.778;7.206;2022-12-16T07:32:36;-7.80;99.80
13591;DHT22;6866;50.778;7.206;2022-12-16T07:35:21;-7.80;99.50
13591;DHT22;6866;50.778;7.206;2022-12-16T07:38:05;-7.80;99.90
13591;DHT22;6866;50.778;7.206;2022-12-16T07:40:49;-7.50;99.00
13591;DHT22;6866;50.778;7.206;2022-12-16T07:43:33;-7.30;98.70
13591;DHT22;6866;50.778;7.206;2022-12-16T07:46:17;-7.20;98.10
13591;DHT22;6866;50.778;7.206;2022-12-16T07:49:01;-7.10;97.70
13591;DHT22;6866;50.778;7.206;2022-12-16T07:51:45;-6.90;98.20
13591;DHT22;6866;50.778;7.206;2022-12-16T07:54:29;-6.70;97.20
13591;DHT22;6866;50.778;7.206;2022-12-16T07:57:13;-6.80;97.20
13591;DHT22;6866;50.778;7.206;2022-12-16T07:59:57;-6.80;97.00
13591;DHT22;6866;50.778;7.206;2022-12-16T08:02:41;-6.60;97.30
13591;DHT22;6866;50.778;7.206;2022-12-16T08:05:25;-6.50;96.90
13591;DHT22;6866;50.778;7.206;2022-12-16T08:08:09;-5.90;94.50
13591;DHT22;6866;50.778;7.206;2022-12-16T08:10:53;-5.50;92.80
13591;DHT22;6866;50.778;7.206;2022-12-16T08:13:37;-5.40;92.90
13591;DHT22;6866;50.778;7.206;2022-12-16T08:16:21;-5.30;92.20
13591;DHT22;6866;50.778;7.206;2022-12-16T08:19:05;-4.30;90.60
13591;DHT22;6866;50.778;7.206;2022-12-16T08:21:49;-3.90;86.30
13591;DHT22;6866;50.778;7.206;2022-12-16T08:24:33;-3.60;84.60
13591;DHT22;6866;50.778;7.206;2022-12-16T08:27:17;-3.60;81.50
13591;DHT22;6866;50.778;7.206;2022-12-16T08:30:01;-3.50;79.20
13591;DHT22;6866;50.778;7.206;2022-12-16T08:32:45;-2.80;78.50
13591;DHT22;6866;50.778;7.206;2022-12-16T08:35:29;-2.50;74.60
13591;DHT22;6866;50.778;7.206;2022-12-16T08:38:13;-2.70;74.40
13591;DHT22;6866;50.778;7.206;2022-12-16T08:40:58;-2.30;73.70
13591;DHT22;6866;50.778;7.206;2022-12-16T08:43:42;-3.20;76.90
13591;DHT22;6866;50.778;7.206;2022-12-16T08:46:26;-3.70;80.20
13591;DHT22;6866;50.778;7.206;2022-12-16T08:49:10;-3.10;80.30
13591;DHT22;6866;50.778;7.206;2022-12-16T08:51:54;-3.30;79.00
13591;DHT22;6866;50.778;7.206;2022-12-16T08:54:38;-1.90;76.60
13591;DHT22;6866;50.778;7.206;2022-12-16T08:57:23;-0.90;71.40
13591;DHT22;6866;50.778;7.206;2022-12-16T09:00:07;-0.30;68.10
13591;DHT22;6866;50.778;7.206;2022-12-16T09:02:53;-0.40;61.30
13591;DHT22;6866;50.778;7.206;2022-12-16T09:05:37;-0.60;61.70
13591;DHT22;6866;50.778;7.206;2022-12-16T09:08:21;-0.50;61.40
13591;DHT22;6866;50.778;7.206;2022-12-16T09:11:06;-0.30;62.30
13591;DHT22;6866;50.778;7.206;2022-12-16T09:13:50;-0.40;59.60
13591;DHT22;6866;50.778;7.206;2022-12-16T09:16:34;0.10;59.50
13591;DHT22;6866;50.778;7.206;2022-12-16T09:19:18;-0.20;58.20
13591;DHT22;6866;50.778;7.206;2022-12-16T09:22:03;-0.20;58.40
13591;DHT22;6866;50.778;7.206;2022-12-16T09:24:47;-0.80;58.20
13591;DHT22;6866;50.778;7.206;2022-12-16T09:27:31;-1.00;58.40
13591;DHT22;6866;50.778;7.206;2022-12-16T09:30:15;-0.40;59.00
13591;DHT22;6866;50.778;7.206;2022-12-16T09:33:00;0.30;58.40
13591;DHT22;6866;50.778;7.206;2022-12-16T09:35:44;0.20;56.90
13591;DHT22;6866;50.778;7.206;2022-12-16T09:38:28;0.40;59.80
13591;DHT22;6866;50.778;7.206;2022-12-16T09:44:08;1.30;55.80
13591;DHT22;6866;50.778;7.206;2022-12-16T09:46:58;0.70;55.20
13591;DHT22;6866;50.778;7.206;2022-12-16T09:49:46;0.30;55.70
13591;DHT22;6866;50.778;7.206;2022-12-16T09:52:31;-0.40;59.90
13591;DHT22;6866;50.778;7.206;2022-12-16T09:55:24;-0.90;62.60
13591;DHT22;6866;50.778;7.206;2022-12-16T09:58:09;-1.10;67.80
13591;DHT22;6866;50.778;7.206;2022-12-16T10:00:54;-1.00;66.10
13591;DHT22;6866;50.778;7.206;2022-12-16T10:03:40;-1.10;67.70
13591;DHT22;6866;50.778;7.206;2022-12-16T10:06:45;-1.10;70.20
13591;DHT22;6866;50.778;7.206;2022-12-16T10:21:22;-1.60;75.80
13591;DHT22;6866;50.778;7.206;2022-12-16T10:27:12;-1.90;78.30
13591;DHT22;6866;50.778;7.206;2022-12-16T10:29:56;-1.70;78.10
13591;DHT22;6866;50.778;7.206;2022-12-16T10:32:50;-1.70;78.70
13591;DHT22;6866;50.778;7.206;2022-12-16T10:35:35;-1.40;78.70
13591;DHT22;6866;50.778;7.206;2022-12-16T10:41:04;-1.30;79.10
13591;DHT22;6866;50.778;7.206;2022-12-16T10:43:49;-1.60;79.50
13591;DHT22;6866;50.778;7.206;2022-12-16T10:46:34;-1.40;79.50
13591;DHT22;6866;50.778;7.206;2022-12-16T10:49:18;-1.90;82.20
13591;DHT22;6866;50.778;7.206;2022-12-16T10:52:02;-2.00;84.40
13591;DHT22;6866;50.778;7.206;2022-12-16T10:55:06;-1.70;84.70
13591;DHT22;6866;50.778;7.206;2022-12-16T10:58:13;-1.70;85.30
13591;DHT22;6866;50.778;7.206;2022-12-16T11:00:59;-1.80;87.70
13591;DHT22;6866;50.778;7.206;2022-12-16T11:03:43;-1.70;86.30
13591;DHT22;6866;50.778;7.206;2022-12-16T11:06:38;-1.60;87.70
13591;DHT22;6866;50.778;7.206;2022-12-16T11:09:33;-1.70;86.90
13591;DHT22;6866;50.778;7.206;2022-12-16T11:12:25;-1.80;87.70
13591;DHT22;6866;50.778;7.206;2022-12-16T11:15:30;-1.50;88.80
13591;DHT22;6866;50.778;7.206;2022-12-16T11:18:20;-1.20;88.30
13591;DHT22;6866;50.778;7.206;2022-12-16T11:21:19;-1.30;87.90
13591;DHT22;6866;50.778;7.206;2022-12-16T11:26:54;-1.50;90.00
13591;DHT22;6866;50.778;7.206;2022-12-16T11:32:34;-1.30;90.50
13591;DHT22;6866;50.778;7.206;2022-12-16T11:35:23;-1.10;89.40
13591;DHT22;6866;50.778;7.206;2022-12-16T11:38:26;-1.20;90.10
13591;DHT22;6866;50.778;7.206;2022-12-16T11:41:28;-1.20;90.20
13591;DHT22;6866;50.778;7.206;2022-12-16T11:44:20;-1.10;90.30
13591;DHT22;6866;50.778;7.206;2022-12-16T11:47:10;-1.10;90.10
13591;DHT22;6866;50.778;7.206;2022-12-16T11:49:57;-1.20;90.30
13591;DHT22;6866;50.778;7.206;2022-12-16T11:52:42;-1.10;90.90
13591;DHT22;6866;50.778;7.206;2022-12-16T11:55:29;-0.90;90.80
13591;DHT22;6866;50.778;7.206;2022-12-16T11:58:41;-1.10;91.30
13591;DHT22;6866;50.778;7.206;2022-12-16T12:01:34;-0.80;91.40
13591;DHT22;6866;50.778;7.206;2022-12-16T12:04:19;-0.70;91.50
13591;DHT22;6866;50.778;7.206;2022-12-16T12:07:21;-0.60;90.80
13591;DHT22;6866;50.778;7.206;2022-12-16T12:16:18;-0.60;93.00
13591;DHT22;6866;50.778;7.206;2022-12-16T12:19:17;-0.50;92.30
13591;DHT22;6866;50.778;7.206;2022-12-16T12:22:17;-0.40;92.50
13591;DHT22;6866;50.778;7.206;2022-12-16T12:25:19;-0.50;93.90
13591;DHT22;6866;50.778;7.206;2022-12-16T12:31:14;-0.30;92.90
13591;DHT22;6866;50.778;7.206;2022-12-16T12:34:19;-0.30;92.80
13591;DHT22;6866;50.778;7.206;2022-12-16T12:39:58;-0.30;92.40
13591;DHT22;6866;50.778;7.206;2022-12-16T12:42:45;-0.40;93.00
13591;DHT22;6866;50.778;7.206;2022-12-16T12:48:53;-0.40;93.10
13591;DHT22;6866;50.778;7.206;2022-12-16T12:55:19;0.10;92.90
13591;DHT22;6866;50.778;7.206;2022-12-16T12:58:07;0.00;92.60
13591;DHT22;6866;50.778;7.206;2022-12-16T13:00:54;0.00;92.10
13591;DHT22;6866;50.778;7.206;2022-12-16T13:04:09;0.10;92.60
13591;DHT22;6866;50.778;7.206;2022-12-16T13:06:55;0.00;92.60
13591;DHT22;6866;50.778;7.206;2022-12-16T13:09:40;-0.10;93.30
13591;DHT22;6866;50.778;7.206;2022-12-16T13:15:35;0.10;93.40
13591;DHT22;6866;50.778;7.206;2022-12-16T13:18:30;0.00;92.70
13591;DHT22;6866;50.778;7.206;2022-12-16T13:21:43;-0.10;93.40
13591;DHT22;6866;50.778;7.206;2022-12-16T13:27:18;0.10;93.10
13591;DHT22;6866;50.778;7.206;2022-12-16T13:33:22;0.20;93.00
13591;DHT22;6866;50.778;7.206;2022-12-16T13:36:11;0.30;93.50
13591;DHT22;6866;50.778;7.206;2022-12-16T13:38:58;0.30;93.40
13591;DHT22;6866;50.778;7.206;2022-12-16T13:47:32;0.40;93.10
13591;DHT22;6866;50.778;7.206;2022-12-16T13:50:42;0.40;94.50
13591;DHT22;6866;50.778;7.206;2022-12-16T13:53:33;0.50;94.20
13591;DHT22;6866;50.778;7.206;2022-12-16T13:56:25;0.50;94.80
13591;DHT22;6866;50.778;7.206;2022-12-16T13:59:16;0.50;95.20
13591;DHT22;6866;50.778;7.206;2022-12-16T14:05:18;0.50;94.70
13591;DHT22;6866;50.778;7.206;2022-12-16T14:08:04;0.50;95.60
13591;DHT22;6866;50.778;7.206;2022-12-16T14:10:56;0.40;95.30
13591;DHT22;6866;50.778;7.206;2022-12-16T14:16:52;0.30;95.10
13591;DHT22;6866;50.778;7.206;2022-12-16T14:23:30;0.30;96.00
13591;DHT22;6866;50.778;7.206;2022-12-16T14:25:58;0.30;95.90
13591;DHT22;6866;50.778;7.206;2022-12-16T14:28:46;0.20;95.50
13591;DHT22;6866;50.778;7.206;2022-12-16T14:31:41;0.10;96.60
13591;DHT22;6866;50.778;7.206;2022-12-16T14:34:32;0.10;97.10
13591;DHT22;6866;50.778;7.206;2022-12-16T14:37:17;0.30;96.60
13591;DHT22;6866;50.778;7.206;2022-12-16T14:40:03;0.30;96.20
13591;DHT22;6866;50.778;7.206;2022-12-16T14:42:51;0.20;96.30
13591;DHT22;6866;50.778;7.206;2022-12-16T14:45:37;0.20;97.30
13591;DHT22;6866;50.778;7.206;2022-12-16T14:48:24;0.10;97.10
13591;DHT22;6866;50.778;7.206;2022-12-16T14:57:32;-0.10;97.90
13591;DHT22;6866;50.778;7.206;2022-12-16T15:00:22;-0.10;98.10
13591;DHT22;6866;50.778;7.206;2022-12-16T15:03:12;-0.10;98.50
13591;DHT22;6866;50.778;7.206;2022-12-16T15:05:58;-0.20;98.40
13591;DHT22;6866;50.778;7.206;2022-12-16T15:08:49;-0.20;99.20
13591;DHT22;6866;50.778;7.206;2022-12-16T15:11:35;-0.10;99.60
13591;DHT22;6866;50.778;7.206;2022-12-16T15:14:25;-0.30;99.40
13591;DHT22;6866;50.778;7.206;2022-12-16T15:17:22;-0.20;99.90
13591;DHT22;6866;50.778;7.206;2022-12-16T15:20:18;-0.40;99.80
13591;DHT22;6866;50.778;7.206;2022-12-16T15:23:03;-0.30;99.90
13591;DHT22;6866;50.778;7.206;2022-12-16T15:25:49;-0.30;99.90
13591;DHT22;6866;50.778;7.206;2022-12-16T15:28:40;-0.40;99.90
13591;DHT22;6866;50.778;7.206;2022-12-16T15:31:30;-0.40;99.90
13591;DHT22;6866;50.778;7.206;2022-12-16T15:34:30;-0.40;99.90
13591;DHT22;6866;50.778;7.206;2022-12-16T15:37:29;-0.40;99.90
13591;DHT22;6866;50.778;7.206;2022-12-16T15:40:39;-0.40;99.90
13591;DHT22;6866;50.778;7.206;2022-12-16T15:43:32;-0.50;99.90
13591;DHT22;6866;50.778;7.206;2022-12-16T15:46:26;-0.50;99.90
13591;DHT22;6866;50.778;7.206;2022-12-16T15:49:33;-0.50;99.90
13591;DHT22;6866;50.778;7.206;2022-12-16T15:58:29;-0.60;99.90
13591;DHT22;6866;50.778;7.206;2022-12-16T16:01:22;-0.70;99.90
13591;DHT22;6866;50.778;7.206;2022-12-16T16:04:33;-0.60;99.90
13591;DHT22;6866;50.778;7.206;2022-12-16T16:07:23;-0.50;99.90
13591;DHT22;6866;50.778;7.206;2022-12-16T16:10:15;-0.50;99.90
13591;DHT22;6866;50.778;7.206;2022-12-16T16:12:59;-0.50;99.90
13591;DHT22;6866;50.778;7.206;2022-12-16T16:15:44;-0.50;99.90
13591;DHT22;6866;50.778;7.206;2022-12-16T16:18:28;-0.60;99.90
13591;DHT22;6866;50.778;7.206;2022-12-16T16:21:12;-0.60;99.90
13591;DHT22;6866;50.778;7.206;2022-12-16T16:23:56;-0.60;99.90
13591;DHT22;6866;50.778;7.206;2022-12-16T16:26:40;-0.50;99.90
13591;DHT22;6866;50.778;7.206;2022-12-16T16:29:25;-0.40;99.90
13591;DHT22;6866;50.778;7.206;2022-12-16T16:32:09;-0.40;99.90
13591;DHT22;6866;50.778;7.206;2022-12-16T16:34:53;-0.40;99.90
13591;DHT22;6866;50.778;7.206;2022-12-16T16:37:38;-0.40;99.90
13591;DHT22;6866;50.778;7.206;2022-12-16T16:40:35;-0.40;99.90
13591;DHT22;6866;50.778;7.206;2022-12-16T16:43:20;-0.40;99.90
13591;DHT22;6866;50.778;7.206;2022-12-16T16:46:25;-0.40;99.90
13591;DHT22;6866;50.778;7.206;2022-12-16T16:49:27;-0.40;99.90
13591;DHT22;6866;50.778;7.206;2022-12-16T16:52:14;-0.40;99.90
13591;DHT22;6866;50.778;7.206;2022-12-16T16:54:58;-0.30;99.90
13591;DHT22;6866;50.778;7.206;2022-12-16T16:57:43;-0.30;99.90
13591;DHT22;6866;50.778;7.206;2022-12-16T17:00:28;-0.30;99.90
13591;DHT22;6866;50.778;7.206;2022-12-16T17:03:12;-0.30;99.90
13591;DHT22;6866;50.778;7.206;2022-12-16T17:05:56;-0.20;99.90
13591;DHT22;6866;50.778;7.206;2022-12-16T17:08:41;-0.20;99.90
13591;DHT22;6866;50.778;7.206;2022-12-16T17:11:25;-0.20;99.90
13591;DHT22;6866;50.778;7.206;2022-12-16T17:14:15;-0.10;99.90
13591;DHT22;6866;50.778;7.206;2022-12-16T17:17:00;-0.10;99.90
13591;DHT22;6866;50.778;7.206;2022-12-16T17:19:44;0.00;99.90
13591;DHT22;6866;50.778;7.206;2022-12-16T17:22:28;0.00;99.90
13591;DHT22;6866;50.778;7.206;2022-12-16T17:25:12;-0.10;99.90
13591;DHT22;6866;50.778;7.206;2022-12-16T17:27:56;-0.10;99.90
13591;DHT22;6866;50.778;7.206;2022-12-16T17:30:41;-0.10;99.90
13591;DHT22;6866;50.778;7.206;2022-12-16T17:33:25;0.00;99.90
13591;DHT22;6866;50.778;7.206;2022-12-16T17:36:14;0.00;99.90
13591;DHT22;6866;50.778;7.206;2022-12-16T17:38:58;-0.10;99.90
13591;DHT22;6866;50.778;7.206;2022-12-16T17:41:42;-0.10;99.90
13591;DHT22;6866;50.778;7.206;2022-12-16T17:44:26;0.00;99.90
13591;DHT22;6866;50.778;7.206;2022-12-16T17:47:10;0.00;99.90
13591;DHT22;6866;50.778;7.206;2022-12-16T17:49:54;0.00;99.90
13591;DHT22;6866;50.778;7.206;2022-12-16T17:52:38;-0.10;99.90
13591;DHT22;6866;50.778;7.206;2022-12-16T17:55:22;-0.10;99.90
13591;DHT22;6866;50.778;7.206;2022-12-16T17:58:06;-0.20;99.90
13591;DHT22;6866;50.778;7.206;2022-12-16T18:00:50;0.00;99.90
13591;DHT22;6866;50.778;7.206;2022-12-16T18:03:34;0.10;99.90
13591;DHT22;6866;50.778;7.206;2022-12-16T18:06:18;0.10;99.90
13591;DHT22;6866;50.778;7.206;2022-12-16T18:09:02;0.00;99.90
13591;DHT22;6866;50.778;7.206;2022-12-16T18:11:46;0.00;99.90
13591;DHT22;6866;50.778;7.206;2022-12-16T18:14:30;0.00;99.90
13591;DHT22;6866;50.778;7.206;2022-12-16T18:17:15;0.00;99.90
13591;DHT22;6866;50.778;7.206;2022-12-16T18:19:58;0.10;99.90
13591;DHT22;6866;50.778;7.206;2022-12-16T18:22:43;0.00;99.90
13591;DHT22;6866;50.778;7.206;2022-12-16T18:25:27;0.10;99.90
13591;DHT22;6866;50.778;7.206;2022-12-16T18:28:11;0.20;99.90
13591;DHT22;6866;50.778;7.206;2022-12-16T18:30:56;0.20;99.90
13591;DHT22;6866;50.778;7.206;2022-12-16T18:33:40;0.20;99.90
13591;DHT22;6866;50.778;7.206;2022-12-16T18:36:24;0.10;99.90
13591;DHT22;6866;50.778;7.206;2022-12-16T18:39:09;0.20;99.90
13591;DHT22;6866;50.778;7.206;2022-12-16T18:41:53;0.20;99.90
13591;DHT22;6866;50.778;7.206;2022-12-16T18:44:37;0.20;99.90
13591;DHT22;6866;50.778;7.206;2022-12-16T18:47:22;0.20;99.90
13591;DHT22;6866;50.778;7.206;2022-12-16T18:50:06;0.30;99.90
13591;DHT22;6866;50.778;7.206;2022-12-16T18:52:50;0.30;99.90
13591;DHT22;6866;50.778;7.206;2022-12-16T18:55:34;0.40;99.90
13591;DHT22;6866;50.778;7.206;2022-12-16T18:58:18;0.30;99.90
13591;DHT22;6866;50.778;7.206;2022-12-16T19:01:09;0.40;99.90
13591;DHT22;6866;50.778;7.206;2022-12-16T19:03:54;0.20;99.90
13591;DHT22;6866;50.778;7.206;2022-12-16T19:06:39;-0.20;99.90
13591;DHT22;6866;50.778;7.206;2022-12-16T19:09:23;-0.20;99.90
13591;DHT22;6866;50.778;7.206;2022-12-16T19:12:07;-0.30;99.90
13591;DHT22;6866;50.778;7.206;2022-12-16T19:14:51;-0.30;99.90
13591;DHT22;6866;50.778;7.206;2022-12-16T19:17:35;-0.40;99.90
13591;DHT22;6866;50.778;7.206;2022-12-16T19:20:20;-0.20;99.90